FIE514 LOWW-UDYZ
Flight info
| Callsign | FIE514 |
|---|---|
| Flight time | 2h 57m |
| Altitude | 35000 |
| Route | ADAMA DCT VEDER DCT ALAMU DCT EPARI DCT BUDOP DCT UDROS UM859 KARDE UL851 TBN UP146 YAVUZ UN161 INDUR |
| Aircraft | A320/M-SDE3FGHIRWY/LB1 |
Departure
| Time | 2026-04-20 04:09 |
|---|---|
| Airport | Vienna International Airport (LOWW) |
Arrival
| Time | 2026-04-20 07:07 |
|---|---|
| Airport | Zvartnots International Airport (UDYZ) |
| Time | Latitude | Longitude | Altitude | Speed | Heading |
|---|---|---|---|---|---|
| 2026-04-20 03:30 | 48.11880 | 16.56822 | 613 ft | 0 kts | 206° |
| 2026-04-20 03:57 | 48.11896 | 16.56834 | 623 ft | 4 kts | 202° |
| 2026-04-20 03:57 | 48.11922 | 16.56847 | 616 ft | 4 kts | 189° |
| 2026-04-20 03:58 | 48.11947 | 16.56846 | 616 ft | 4 kts | 145° |
| 2026-04-20 03:58 | 48.11955 | 16.56836 | 625 ft | 0 kts | 116° |
| 2026-04-20 04:04 | 48.11951 | 16.56848 | 615 ft | 5 kts | 116° |
| 2026-04-20 04:04 | 48.11930 | 16.56913 | 614 ft | 9 kts | 116° |
| 2026-04-20 04:05 | 48.11895 | 16.57021 | 613 ft | 13 kts | 116° |
| 2026-04-20 04:05 | 48.11857 | 16.57146 | 613 ft | 14 kts | 103° |
| 2026-04-20 04:05 | 48.11832 | 16.57286 | 615 ft | 15 kts | 114° |
| 2026-04-20 04:05 | 48.11750 | 16.57370 | 615 ft | 15 kts | 164° |
| 2026-04-20 04:06 | 48.11640 | 16.57417 | 618 ft | 19 kts | 164° |
| 2026-04-20 04:06 | 48.11504 | 16.57464 | 611 ft | 20 kts | 185° |
| 2026-04-20 04:06 | 48.11397 | 16.57392 | 616 ft | 17 kts | 205° |
| 2026-04-20 04:06 | 48.11283 | 16.57310 | 620 ft | 19 kts | 206° |
| 2026-04-20 04:07 | 48.11188 | 16.57340 | 613 ft | 16 kts | 120° |
| 2026-04-20 04:07 | 48.11137 | 16.57495 | 613 ft | 17 kts | 116° |
| 2026-04-20 04:07 | 48.11078 | 16.57641 | 609 ft | 16 kts | 147° |
| 2026-04-20 04:07 | 48.11018 | 16.57630 | 617 ft | 5 kts | 207° |
| 2026-04-20 04:08 | 48.10980 | 16.57601 | 619 ft | 7 kts | 206° |
| 2026-04-20 04:08 | 48.10921 | 16.57556 | 619 ft | 10 kts | 216° |
| 2026-04-20 04:08 | 48.10933 | 16.57478 | 615 ft | 9 kts | 296° |
| 2026-04-20 04:08 | 48.11054 | 16.57108 | 612 ft | 78 kts | 296° |
| 2026-04-20 04:09 | 48.11393 | 16.56065 | 621 ft | 141 kts | 296° |
| 2026-04-20 04:09 | 48.11889 | 16.54559 | 895 ft | 167 kts | 298° |
| 2026-04-20 04:09 | 48.12339 | 16.52965 | 1792 ft | 168 kts | 278° |
| 2026-04-20 04:09 | 48.11979 | 16.51271 | 2572 ft | 187 kts | 233° |
| 2026-04-20 04:10 | 48.10786 | 16.50236 | 2871 ft | 215 kts | 204° |
| 2026-04-20 04:10 | 48.09293 | 16.49607 | 3289 ft | 227 kts | 199° |
| 2026-04-20 04:10 | 48.07746 | 16.49059 | 3847 ft | 230 kts | 199° |
| 2026-04-20 04:10 | 48.06150 | 16.48759 | 4446 ft | 237 kts | 179° |
| 2026-04-20 04:11 | 48.04539 | 16.49458 | 4858 ft | 253 kts | 152° |
| 2026-04-20 04:11 | 48.02976 | 16.50933 | 5090 ft | 278 kts | 148° |
| 2026-04-20 04:11 | 48.01296 | 16.52532 | 5576 ft | 291 kts | 149° |
| 2026-04-20 04:11 | 47.99564 | 16.54151 | 6329 ft | 296 kts | 149° |
| 2026-04-20 04:12 | 47.97905 | 16.55930 | 7032 ft | 301 kts | 135° |
| 2026-04-20 04:12 | 47.96722 | 16.58505 | 7718 ft | 304 kts | 110° |
| 2026-04-20 04:12 | 47.96295 | 16.61569 | 8423 ft | 303 kts | 85° |
| 2026-04-20 04:12 | 47.96669 | 16.64618 | 9126 ft | 299 kts | 65° |
| 2026-04-20 04:13 | 47.97367 | 16.67566 | 9845 ft | 303 kts | 66° |
| 2026-04-20 04:13 | 47.98067 | 16.70555 | 10429 ft | 310 kts | 66° |
| 2026-04-20 04:13 | 47.98801 | 16.73704 | 10568 ft | 333 kts | 67° |
| 2026-04-20 04:13 | 47.99529 | 16.77112 | 10690 ft | 356 kts | 74° |
| 2026-04-20 04:14 | 47.99869 | 16.80883 | 10838 ft | 377 kts | 83° |
| 2026-04-20 04:14 | 48.00078 | 16.84836 | 11290 ft | 384 kts | 83° |
| 2026-04-20 04:14 | 48.00296 | 16.88831 | 11856 ft | 388 kts | 83° |
| 2026-04-20 04:14 | 48.00517 | 16.92862 | 12423 ft | 391 kts | 84° |
| 2026-04-20 04:15 | 48.00742 | 16.96929 | 13001 ft | 394 kts | 84° |
| 2026-04-20 04:15 | 48.00972 | 17.01024 | 13587 ft | 398 kts | 84° |
| 2026-04-20 04:15 | 48.01003 | 17.05171 | 14129 ft | 402 kts | 94° |
| 2026-04-20 04:15 | 48.00703 | 17.09337 | 14644 ft | 405 kts | 96° |
| 2026-04-20 04:16 | 48.00379 | 17.13530 | 15133 ft | 408 kts | 96° |
| 2026-04-20 04:16 | 48.00051 | 17.17757 | 15618 ft | 412 kts | 96° |
| 2026-04-20 04:16 | 47.99832 | 17.20579 | 15945 ft | 414 kts | 97° |
| 2026-04-20 04:16 | 47.99492 | 17.24932 | 16432 ft | 418 kts | 97° |
| 2026-04-20 04:17 | 47.99159 | 17.29204 | 16929 ft | 422 kts | 97° |
| 2026-04-20 04:17 | 47.98763 | 17.33563 | 17427 ft | 426 kts | 102° |
| 2026-04-20 04:17 | 47.97976 | 17.37837 | 17926 ft | 429 kts | 109° |
| 2026-04-20 04:17 | 47.97037 | 17.42086 | 18416 ft | 433 kts | 109° |
| 2026-04-20 04:18 | 47.96095 | 17.46374 | 18871 ft | 436 kts | 109° |
| 2026-04-20 04:18 | 47.95148 | 17.50689 | 19337 ft | 439 kts | 109° |
| 2026-04-20 04:18 | 47.94195 | 17.55034 | 19792 ft | 442 kts | 109° |
| 2026-04-20 04:18 | 47.93233 | 17.59411 | 20252 ft | 445 kts | 109° |
| 2026-04-20 04:19 | 47.92267 | 17.63805 | 20701 ft | 447 kts | 109° |
| 2026-04-20 04:19 | 47.91294 | 17.68218 | 21126 ft | 449 kts | 109° |
| 2026-04-20 04:19 | 47.90309 | 17.72662 | 21542 ft | 452 kts | 109° |
| 2026-04-20 04:19 | 47.89320 | 17.77110 | 21942 ft | 454 kts | 110° |
| 2026-04-20 04:20 | 47.88324 | 17.81581 | 22334 ft | 455 kts | 110° |
| 2026-04-20 04:20 | 47.87324 | 17.86067 | 22709 ft | 457 kts | 110° |
| 2026-04-20 04:20 | 47.86316 | 17.90569 | 23082 ft | 459 kts | 110° |
| 2026-04-20 04:20 | 47.85298 | 17.95088 | 23447 ft | 461 kts | 110° |
| 2026-04-20 04:21 | 47.84166 | 17.99557 | 23763 ft | 462 kts | 116° |
| 2026-04-20 04:21 | 47.82815 | 18.03900 | 24061 ft | 463 kts | 116° |
| 2026-04-20 04:21 | 47.81457 | 18.08260 | 24346 ft | 465 kts | 116° |
| 2026-04-20 04:21 | 47.80089 | 18.12641 | 24627 ft | 467 kts | 117° |
| 2026-04-20 04:22 | 47.78716 | 18.17030 | 24917 ft | 469 kts | 117° |
| 2026-04-20 04:22 | 47.77339 | 18.21423 | 25194 ft | 470 kts | 117° |
| 2026-04-20 04:22 | 47.75955 | 18.25829 | 25584 ft | 469 kts | 117° |
| 2026-04-20 04:22 | 47.74626 | 18.30254 | 25991 ft | 469 kts | 112° |
| 2026-04-20 04:23 | 47.73677 | 18.34892 | 26386 ft | 469 kts | 103° |
| 2026-04-20 04:23 | 47.73177 | 18.39680 | 26811 ft | 469 kts | 97° |
| 2026-04-20 04:23 | 47.72824 | 18.44493 | 27234 ft | 468 kts | 97° |
| 2026-04-20 04:23 | 47.72469 | 18.49289 | 27665 ft | 467 kts | 97° |
| 2026-04-20 04:24 | 47.72105 | 18.54078 | 28108 ft | 466 kts | 97° |
| 2026-04-20 04:24 | 47.71733 | 18.58852 | 28549 ft | 465 kts | 97° |
| 2026-04-20 04:24 | 47.71357 | 18.63618 | 28965 ft | 464 kts | 97° |
| 2026-04-20 04:24 | 47.70984 | 18.68365 | 29399 ft | 463 kts | 97° |
| 2026-04-20 04:25 | 47.70614 | 18.73107 | 29819 ft | 462 kts | 97° |
| 2026-04-20 04:25 | 47.70243 | 18.77843 | 30209 ft | 461 kts | 97° |
| 2026-04-20 04:25 | 47.69874 | 18.82506 | 30571 ft | 460 kts | 97° |
| 2026-04-20 04:25 | 47.69495 | 18.87222 | 30921 ft | 460 kts | 97° |
| 2026-04-20 04:26 | 47.69110 | 18.91935 | 31238 ft | 460 kts | 98° |
| 2026-04-20 04:26 | 47.68455 | 18.96577 | 31576 ft | 459 kts | 108° |
| 2026-04-20 04:26 | 47.67353 | 19.01005 | 31900 ft | 458 kts | 116° |
| 2026-04-20 04:26 | 47.65859 | 19.05173 | 32230 ft | 457 kts | 121° |
| 2026-04-20 04:27 | 47.64293 | 19.09266 | 32558 ft | 457 kts | 121° |
| 2026-04-20 04:27 | 47.62728 | 19.13365 | 32893 ft | 457 kts | 121° |
| 2026-04-20 04:27 | 47.61164 | 19.17463 | 33227 ft | 457 kts | 121° |
| 2026-04-20 04:27 | 47.59598 | 19.21563 | 33535 ft | 457 kts | 121° |
| 2026-04-20 04:28 | 47.58033 | 19.25654 | 33860 ft | 457 kts | 121° |
| 2026-04-20 04:28 | 47.56467 | 19.29748 | 34131 ft | 457 kts | 121° |
| 2026-04-20 04:28 | 47.54900 | 19.33846 | 34378 ft | 457 kts | 121° |
| 2026-04-20 04:28 | 47.53332 | 19.37938 | 34612 ft | 457 kts | 121° |
| 2026-04-20 04:29 | 47.51765 | 19.42021 | 34854 ft | 457 kts | 121° |
| 2026-04-20 04:29 | 47.50192 | 19.46114 | 34974 ft | 458 kts | 121° |
| 2026-04-20 04:29 | 47.46999 | 19.54393 | 34993 ft | 469 kts | 121° |
| 2026-04-20 04:30 | 47.43729 | 19.62839 | 34985 ft | 476 kts | 121° |
| 2026-04-20 04:30 | 47.40422 | 19.71346 | 34976 ft | 478 kts | 121° |
| 2026-04-20 04:31 | 47.37113 | 19.79855 | 34971 ft | 478 kts | 121° |
| 2026-04-20 04:31 | 47.33800 | 19.88347 | 34964 ft | 478 kts | 121° |
| 2026-04-20 04:32 | 47.30494 | 19.96772 | 34964 ft | 478 kts | 121° |
| 2026-04-20 04:32 | 47.27155 | 20.05243 | 34958 ft | 478 kts | 121° |
| 2026-04-20 04:33 | 47.23815 | 20.13714 | 34958 ft | 478 kts | 121° |
| 2026-04-20 04:33 | 47.20467 | 20.22175 | 34955 ft | 478 kts | 121° |
| 2026-04-20 04:34 | 47.17120 | 20.30626 | 34959 ft | 478 kts | 121° |
| 2026-04-20 04:34 | 47.13767 | 20.39070 | 34986 ft | 478 kts | 121° |
| 2026-04-20 04:35 | 47.10403 | 20.47493 | 34985 ft | 478 kts | 121° |
| 2026-04-20 04:35 | 47.07030 | 20.55898 | 34994 ft | 478 kts | 121° |
| 2026-04-20 04:36 | 47.01985 | 20.68426 | 34977 ft | 478 kts | 121° |
| 2026-04-20 04:37 | 46.98600 | 20.76807 | 34972 ft | 478 kts | 121° |
| 2026-04-20 04:37 | 46.95215 | 20.85166 | 34969 ft | 477 kts | 121° |
| 2026-04-20 04:38 | 46.91817 | 20.93532 | 34996 ft | 479 kts | 122° |
| 2026-04-20 04:38 | 46.88419 | 21.01885 | 34931 ft | 477 kts | 122° |
| 2026-04-20 04:39 | 46.85017 | 21.10225 | 34928 ft | 479 kts | 122° |
| 2026-04-20 04:39 | 46.81589 | 21.18568 | 34932 ft | 479 kts | 122° |
| 2026-04-20 04:40 | 46.78155 | 21.26912 | 34935 ft | 480 kts | 122° |
| 2026-04-20 04:40 | 46.74720 | 21.35257 | 34942 ft | 480 kts | 122° |
| 2026-04-20 04:41 | 46.71275 | 21.43592 | 34944 ft | 480 kts | 123° |
| 2026-04-20 04:41 | 46.67856 | 21.51879 | 34958 ft | 480 kts | 121° |
| 2026-04-20 04:42 | 46.64646 | 21.60412 | 34961 ft | 481 kts | 119° |
| 2026-04-20 04:42 | 46.61564 | 21.69050 | 34970 ft | 481 kts | 118° |
| 2026-04-20 04:43 | 46.58456 | 21.77654 | 34973 ft | 481 kts | 119° |
| 2026-04-20 04:43 | 46.55277 | 21.86208 | 34980 ft | 481 kts | 120° |
| 2026-04-20 04:44 | 46.52074 | 21.94726 | 34979 ft | 481 kts | 120° |
| 2026-04-20 04:44 | 46.48876 | 22.03260 | 34982 ft | 481 kts | 120° |
| 2026-04-20 04:45 | 46.45688 | 22.11790 | 34984 ft | 481 kts | 120° |
| 2026-04-20 04:45 | 46.42488 | 22.20302 | 34982 ft | 481 kts | 120° |
| 2026-04-20 04:46 | 46.39279 | 22.28801 | 34980 ft | 481 kts | 120° |
| 2026-04-20 04:46 | 46.36067 | 22.37289 | 34978 ft | 481 kts | 120° |
| 2026-04-20 04:47 | 46.32864 | 22.45715 | 34984 ft | 481 kts | 120° |
| 2026-04-20 04:47 | 46.29638 | 22.54178 | 34983 ft | 481 kts | 120° |
| 2026-04-20 04:48 | 46.26408 | 22.62649 | 34985 ft | 481 kts | 120° |
| 2026-04-20 04:48 | 46.23171 | 22.71100 | 34988 ft | 480 kts | 120° |
| 2026-04-20 04:49 | 46.19928 | 22.79530 | 34993 ft | 480 kts | 120° |
| 2026-04-20 04:49 | 46.16677 | 22.87958 | 34988 ft | 480 kts | 120° |
| 2026-04-20 04:50 | 46.13426 | 22.96369 | 34991 ft | 480 kts | 120° |
| 2026-04-20 04:50 | 46.10172 | 23.04770 | 34990 ft | 480 kts | 120° |
| 2026-04-20 04:51 | 46.06903 | 23.13149 | 34988 ft | 480 kts | 120° |
| 2026-04-20 04:51 | 46.03635 | 23.21520 | 34989 ft | 479 kts | 120° |
| 2026-04-20 04:52 | 46.00364 | 23.29878 | 34988 ft | 479 kts | 120° |
| 2026-04-20 04:52 | 45.97086 | 23.38229 | 34985 ft | 479 kts | 120° |
| 2026-04-20 04:53 | 45.93805 | 23.46552 | 34988 ft | 478 kts | 120° |
| 2026-04-20 04:53 | 45.90540 | 23.54804 | 34988 ft | 478 kts | 120° |
| 2026-04-20 04:54 | 45.87251 | 23.63098 | 34984 ft | 478 kts | 120° |
| 2026-04-20 04:54 | 45.83963 | 23.71383 | 34978 ft | 477 kts | 120° |
| 2026-04-20 04:55 | 45.80674 | 23.79644 | 34972 ft | 477 kts | 120° |
| 2026-04-20 04:55 | 45.77375 | 23.87882 | 34971 ft | 476 kts | 120° |
| 2026-04-20 04:56 | 45.74073 | 23.96102 | 34972 ft | 476 kts | 121° |
| 2026-04-20 04:56 | 45.70773 | 24.04308 | 34968 ft | 476 kts | 121° |
| 2026-04-20 04:57 | 45.67473 | 24.12499 | 34968 ft | 475 kts | 121° |
| 2026-04-20 04:57 | 45.64155 | 24.20684 | 34973 ft | 475 kts | 121° |
| 2026-04-20 04:58 | 45.60830 | 24.28846 | 34978 ft | 475 kts | 121° |
| 2026-04-20 04:58 | 45.57512 | 24.37013 | 34979 ft | 475 kts | 121° |
| 2026-04-20 04:59 | 45.54192 | 24.45169 | 34987 ft | 475 kts | 121° |
| 2026-04-20 04:59 | 45.50860 | 24.53312 | 34985 ft | 475 kts | 121° |
| 2026-04-20 05:00 | 45.47539 | 24.61383 | 34993 ft | 475 kts | 121° |
| 2026-04-20 05:00 | 45.44191 | 24.69506 | 34991 ft | 475 kts | 121° |
| 2026-04-20 05:01 | 45.40837 | 24.77612 | 34991 ft | 475 kts | 121° |
| 2026-04-20 05:01 | 45.37481 | 24.85721 | 34993 ft | 475 kts | 121° |
| 2026-04-20 05:02 | 45.34120 | 24.93823 | 34997 ft | 475 kts | 121° |
| 2026-04-20 05:02 | 45.30750 | 25.01927 | 35000 ft | 476 kts | 121° |
| 2026-04-20 05:03 | 45.27394 | 25.09961 | 34996 ft | 476 kts | 121° |
| 2026-04-20 05:03 | 45.24008 | 25.18044 | 34996 ft | 476 kts | 121° |
| 2026-04-20 05:04 | 45.20618 | 25.26107 | 34994 ft | 476 kts | 121° |
| 2026-04-20 05:04 | 45.17217 | 25.34164 | 34996 ft | 476 kts | 121° |
| 2026-04-20 05:05 | 45.14392 | 25.40840 | 34993 ft | 475 kts | 121° |
| 2026-04-20 05:05 | 45.10991 | 25.48863 | 34993 ft | 475 kts | 121° |
| 2026-04-20 05:06 | 45.07586 | 25.56879 | 34995 ft | 475 kts | 121° |
| 2026-04-20 05:06 | 45.04181 | 25.64882 | 34992 ft | 474 kts | 122° |
| 2026-04-20 05:07 | 45.00768 | 25.72862 | 34991 ft | 474 kts | 122° |
| 2026-04-20 05:07 | 44.97356 | 25.80826 | 34987 ft | 473 kts | 122° |
| 2026-04-20 05:08 | 44.93940 | 25.88772 | 34987 ft | 473 kts | 122° |
| 2026-04-20 05:08 | 44.90527 | 25.96701 | 34984 ft | 473 kts | 122° |
| 2026-04-20 05:09 | 44.87107 | 26.04622 | 34984 ft | 472 kts | 122° |
| 2026-04-20 05:09 | 44.83686 | 26.12518 | 34984 ft | 472 kts | 122° |
| 2026-04-20 05:10 | 44.80260 | 26.20408 | 34987 ft | 472 kts | 122° |
| 2026-04-20 05:10 | 44.76834 | 26.28285 | 34983 ft | 472 kts | 122° |
| 2026-04-20 05:11 | 44.73392 | 26.36145 | 34980 ft | 471 kts | 122° |
| 2026-04-20 05:11 | 44.69950 | 26.43995 | 34979 ft | 471 kts | 122° |
| 2026-04-20 05:12 | 44.66529 | 26.51780 | 34974 ft | 471 kts | 122° |
| 2026-04-20 05:12 | 44.63081 | 26.59611 | 34974 ft | 471 kts | 122° |
| 2026-04-20 05:13 | 44.59627 | 26.67436 | 34969 ft | 471 kts | 122° |
| 2026-04-20 05:13 | 44.56167 | 26.75250 | 34971 ft | 472 kts | 122° |
| 2026-04-20 05:14 | 44.52703 | 26.83051 | 34971 ft | 472 kts | 122° |
| 2026-04-20 05:14 | 44.49225 | 26.90872 | 34968 ft | 472 kts | 122° |
| 2026-04-20 05:15 | 44.45745 | 26.98683 | 34972 ft | 473 kts | 122° |
| 2026-04-20 05:15 | 44.42254 | 27.06477 | 34973 ft | 473 kts | 122° |
| 2026-04-20 05:16 | 44.38744 | 27.14267 | 34973 ft | 473 kts | 123° |
| 2026-04-20 05:16 | 44.35226 | 27.22048 | 34975 ft | 474 kts | 123° |
| 2026-04-20 05:17 | 44.31713 | 27.29835 | 34976 ft | 474 kts | 123° |
| 2026-04-20 05:17 | 44.28196 | 27.37620 | 34976 ft | 474 kts | 123° |
| 2026-04-20 05:18 | 44.24671 | 27.45392 | 34977 ft | 474 kts | 123° |
| 2026-04-20 05:18 | 44.21128 | 27.53169 | 34980 ft | 475 kts | 123° |
| 2026-04-20 05:19 | 44.17582 | 27.60931 | 34986 ft | 475 kts | 123° |
| 2026-04-20 05:19 | 44.14037 | 27.68692 | 34992 ft | 475 kts | 123° |
| 2026-04-20 05:20 | 44.10501 | 27.76400 | 34998 ft | 475 kts | 123° |
| 2026-04-20 05:20 | 44.06929 | 27.84146 | 34999 ft | 475 kts | 123° |
| 2026-04-20 05:21 | 44.03358 | 27.91890 | 35002 ft | 475 kts | 123° |
| 2026-04-20 05:21 | 43.99790 | 27.99628 | 35002 ft | 476 kts | 123° |
| 2026-04-20 05:22 | 43.96212 | 28.07349 | 35002 ft | 476 kts | 123° |
| 2026-04-20 05:22 | 43.92615 | 28.15067 | 35006 ft | 476 kts | 123° |
| 2026-04-20 05:23 | 43.89017 | 28.22781 | 35010 ft | 476 kts | 123° |
| 2026-04-20 05:23 | 43.85412 | 28.30494 | 35015 ft | 476 kts | 123° |
| 2026-04-20 05:24 | 43.81809 | 28.38199 | 35020 ft | 477 kts | 124° |
| 2026-04-20 05:24 | 43.78190 | 28.45894 | 35023 ft | 477 kts | 124° |
| 2026-04-20 05:25 | 43.74565 | 28.53587 | 35026 ft | 477 kts | 124° |
| 2026-04-20 05:25 | 43.70938 | 28.61271 | 35030 ft | 477 kts | 124° |
| 2026-04-20 05:26 | 43.67331 | 28.68894 | 35033 ft | 477 kts | 124° |
| 2026-04-20 05:26 | 43.63690 | 28.76555 | 35038 ft | 477 kts | 124° |
| 2026-04-20 05:27 | 43.60036 | 28.84221 | 35042 ft | 478 kts | 124° |
| 2026-04-20 05:27 | 43.56380 | 28.91879 | 35044 ft | 478 kts | 124° |
| 2026-04-20 05:28 | 43.52713 | 28.99530 | 35049 ft | 478 kts | 124° |
| 2026-04-20 05:28 | 43.49047 | 29.07176 | 35054 ft | 479 kts | 124° |
| 2026-04-20 05:29 | 43.45370 | 29.14821 | 35057 ft | 479 kts | 124° |
| 2026-04-20 05:29 | 43.41690 | 29.22465 | 35056 ft | 479 kts | 124° |
| 2026-04-20 05:30 | 43.37998 | 29.30095 | 35057 ft | 479 kts | 124° |
| 2026-04-20 05:30 | 43.34298 | 29.37717 | 35060 ft | 480 kts | 124° |
| 2026-04-20 05:31 | 43.30588 | 29.45346 | 35064 ft | 480 kts | 124° |
| 2026-04-20 05:31 | 43.26882 | 29.52964 | 35065 ft | 480 kts | 124° |
| 2026-04-20 05:32 | 43.23164 | 29.60580 | 35067 ft | 480 kts | 124° |
| 2026-04-20 05:32 | 43.19441 | 29.68175 | 35066 ft | 480 kts | 124° |
| 2026-04-20 05:33 | 43.15714 | 29.75774 | 35066 ft | 480 kts | 124° |
| 2026-04-20 05:33 | 43.11980 | 29.83358 | 35071 ft | 481 kts | 124° |
| 2026-04-20 05:34 | 43.08257 | 29.90890 | 35071 ft | 480 kts | 124° |
| 2026-04-20 05:34 | 43.02638 | 30.02248 | 35074 ft | 481 kts | 124° |
| 2026-04-20 05:35 | 42.98884 | 30.09812 | 35081 ft | 481 kts | 124° |
| 2026-04-20 05:35 | 42.95116 | 30.17362 | 35084 ft | 481 kts | 124° |
| 2026-04-20 05:36 | 42.91347 | 30.24907 | 35085 ft | 481 kts | 124° |
| 2026-04-20 05:36 | 42.87580 | 30.32444 | 35085 ft | 481 kts | 124° |
| 2026-04-20 05:37 | 42.83803 | 30.39981 | 35087 ft | 481 kts | 124° |
| 2026-04-20 05:37 | 42.80015 | 30.47498 | 35091 ft | 481 kts | 124° |
| 2026-04-20 05:38 | 42.76257 | 30.55042 | 35091 ft | 481 kts | 120° |
| 2026-04-20 05:38 | 42.73658 | 30.63378 | 35090 ft | 479 kts | 102° |
| 2026-04-20 05:39 | 42.72637 | 30.72242 | 35094 ft | 477 kts | 96° |
| 2026-04-20 05:39 | 42.71740 | 30.81184 | 35093 ft | 477 kts | 96° |
| 2026-04-20 05:40 | 42.70812 | 30.90121 | 35095 ft | 477 kts | 96° |
| 2026-04-20 05:40 | 42.69878 | 30.99059 | 35093 ft | 477 kts | 96° |
| 2026-04-20 05:41 | 42.68946 | 31.07996 | 35099 ft | 477 kts | 96° |
| 2026-04-20 05:41 | 42.68018 | 31.16922 | 35101 ft | 477 kts | 96° |
| 2026-04-20 05:42 | 42.67073 | 31.25849 | 35103 ft | 477 kts | 96° |
| 2026-04-20 05:42 | 42.66122 | 31.34709 | 35104 ft | 477 kts | 96° |
| 2026-04-20 05:43 | 42.65163 | 31.43633 | 35104 ft | 476 kts | 96° |
| 2026-04-20 05:43 | 42.64205 | 31.52538 | 35108 ft | 476 kts | 96° |
| 2026-04-20 05:44 | 42.63236 | 31.61436 | 35107 ft | 476 kts | 96° |
| 2026-04-20 05:44 | 42.62262 | 31.70322 | 35108 ft | 476 kts | 96° |
| 2026-04-20 05:45 | 42.61278 | 31.79207 | 35109 ft | 475 kts | 97° |
| 2026-04-20 05:45 | 42.60285 | 31.88078 | 35112 ft | 475 kts | 97° |
| 2026-04-20 05:46 | 42.59294 | 31.96881 | 35111 ft | 475 kts | 97° |
| 2026-04-20 05:46 | 42.58302 | 32.05736 | 35111 ft | 474 kts | 96° |
| 2026-04-20 05:47 | 42.57318 | 32.14587 | 35110 ft | 474 kts | 96° |
| 2026-04-20 05:47 | 42.56307 | 32.23421 | 35108 ft | 474 kts | 97° |
| 2026-04-20 05:48 | 42.55287 | 32.32248 | 35109 ft | 474 kts | 97° |
| 2026-04-20 05:48 | 42.54257 | 32.41079 | 35111 ft | 474 kts | 97° |
| 2026-04-20 05:49 | 42.53222 | 32.49907 | 35116 ft | 474 kts | 97° |
| 2026-04-20 05:49 | 42.52357 | 32.57241 | 35114 ft | 474 kts | 97° |
| 2026-04-20 05:50 | 42.51317 | 32.66052 | 35116 ft | 473 kts | 97° |
| 2026-04-20 05:50 | 42.50270 | 32.74854 | 35115 ft | 473 kts | 97° |
| 2026-04-20 05:51 | 42.49211 | 32.83651 | 35116 ft | 473 kts | 97° |
| 2026-04-20 05:51 | 42.48151 | 32.92437 | 35121 ft | 472 kts | 97° |
| 2026-04-20 05:52 | 42.47083 | 33.01218 | 35119 ft | 472 kts | 97° |
| 2026-04-20 05:52 | 42.46007 | 33.09982 | 35117 ft | 472 kts | 97° |
| 2026-04-20 05:53 | 42.44924 | 33.18747 | 35115 ft | 472 kts | 97° |
| 2026-04-20 05:53 | 42.43838 | 33.27502 | 35118 ft | 471 kts | 97° |
| 2026-04-20 05:54 | 42.42748 | 33.36196 | 35113 ft | 471 kts | 97° |
| 2026-04-20 05:54 | 42.41657 | 33.44930 | 35113 ft | 471 kts | 97° |
| 2026-04-20 05:55 | 42.40561 | 33.53659 | 35114 ft | 470 kts | 97° |
| 2026-04-20 05:55 | 42.39446 | 33.62376 | 35111 ft | 470 kts | 97° |
| 2026-04-20 05:56 | 42.38321 | 33.71091 | 35110 ft | 470 kts | 97° |
| 2026-04-20 05:56 | 42.37197 | 33.79788 | 35112 ft | 469 kts | 97° |
| 2026-04-20 05:57 | 42.36068 | 33.88493 | 35112 ft | 469 kts | 98° |
| 2026-04-20 05:57 | 42.34939 | 33.97179 | 35109 ft | 469 kts | 98° |
| 2026-04-20 05:58 | 42.33817 | 34.05795 | 35110 ft | 468 kts | 98° |
| 2026-04-20 05:58 | 42.32680 | 34.14464 | 35103 ft | 468 kts | 98° |
| 2026-04-20 05:59 | 42.31533 | 34.23119 | 35107 ft | 468 kts | 98° |
| 2026-04-20 05:59 | 42.30373 | 34.31763 | 35098 ft | 467 kts | 98° |
| 2026-04-20 06:00 | 42.29214 | 34.40401 | 35102 ft | 467 kts | 98° |
| 2026-04-20 06:00 | 42.28057 | 34.49031 | 35100 ft | 467 kts | 98° |
| 2026-04-20 06:01 | 42.26888 | 34.57652 | 35099 ft | 467 kts | 98° |
| 2026-04-20 06:01 | 42.25708 | 34.66260 | 35099 ft | 466 kts | 98° |
| 2026-04-20 06:02 | 42.24520 | 34.74864 | 35097 ft | 466 kts | 98° |
| 2026-04-20 06:02 | 42.23331 | 34.83460 | 35094 ft | 465 kts | 98° |
| 2026-04-20 06:03 | 42.22139 | 34.92036 | 35093 ft | 465 kts | 98° |
| 2026-04-20 06:03 | 42.20942 | 35.00606 | 35090 ft | 465 kts | 99° |
| 2026-04-20 06:04 | 42.19740 | 35.09168 | 35095 ft | 464 kts | 99° |
| 2026-04-20 06:04 | 42.18531 | 35.17652 | 35089 ft | 464 kts | 99° |
| 2026-04-20 06:05 | 42.17306 | 35.26183 | 35092 ft | 463 kts | 99° |
| 2026-04-20 06:05 | 42.16084 | 35.34706 | 35093 ft | 463 kts | 99° |
| 2026-04-20 06:06 | 42.14865 | 35.43229 | 35092 ft | 463 kts | 99° |
| 2026-04-20 06:06 | 42.13641 | 35.51755 | 35090 ft | 463 kts | 99° |
| 2026-04-20 06:07 | 42.12403 | 35.60268 | 35090 ft | 463 kts | 99° |
| 2026-04-20 06:07 | 42.11153 | 35.68773 | 35087 ft | 463 kts | 100° |
| 2026-04-20 06:08 | 42.09900 | 35.77274 | 35084 ft | 463 kts | 100° |
| 2026-04-20 06:08 | 42.08644 | 35.85782 | 35084 ft | 463 kts | 100° |
| 2026-04-20 06:09 | 42.07382 | 35.94293 | 35081 ft | 464 kts | 100° |
| 2026-04-20 06:09 | 42.06109 | 36.02808 | 35076 ft | 464 kts | 100° |
| 2026-04-20 06:10 | 42.04828 | 36.11318 | 35081 ft | 464 kts | 100° |
| 2026-04-20 06:10 | 42.03542 | 36.19838 | 35083 ft | 465 kts | 101° |
| 2026-04-20 06:11 | 42.02264 | 36.28300 | 35085 ft | 465 kts | 101° |
| 2026-04-20 06:11 | 42.00966 | 36.36819 | 35088 ft | 465 kts | 101° |
| 2026-04-20 06:12 | 41.99661 | 36.45331 | 35085 ft | 465 kts | 101° |
| 2026-04-20 06:12 | 41.98352 | 36.53844 | 35085 ft | 465 kts | 101° |
| 2026-04-20 06:13 | 41.97035 | 36.62362 | 35085 ft | 466 kts | 101° |
| 2026-04-20 06:13 | 41.95705 | 36.70872 | 35086 ft | 466 kts | 102° |
| 2026-04-20 06:14 | 41.94367 | 36.79380 | 35083 ft | 465 kts | 102° |
| 2026-04-20 06:14 | 41.93035 | 36.87886 | 35087 ft | 465 kts | 102° |
| 2026-04-20 06:15 | 41.91697 | 36.96384 | 35086 ft | 465 kts | 102° |
| 2026-04-20 06:15 | 41.90220 | 37.04829 | 35078 ft | 464 kts | 109° |
| 2026-04-20 06:16 | 41.87778 | 37.12837 | 35083 ft | 464 kts | 114° |
| 2026-04-20 06:16 | 41.85272 | 37.20820 | 35089 ft | 464 kts | 114° |
| 2026-04-20 06:17 | 41.82764 | 37.28785 | 35086 ft | 463 kts | 114° |
| 2026-04-20 06:17 | 41.80248 | 37.36736 | 35088 ft | 463 kts | 114° |
| 2026-04-20 06:18 | 41.77728 | 37.44681 | 35088 ft | 463 kts | 114° |
| 2026-04-20 06:18 | 41.75203 | 37.52626 | 35087 ft | 463 kts | 114° |
| 2026-04-20 06:19 | 41.72664 | 37.60570 | 35083 ft | 464 kts | 114° |
| 2026-04-20 06:19 | 41.70115 | 37.68500 | 35086 ft | 464 kts | 115° |
| 2026-04-20 06:20 | 41.67568 | 37.76436 | 35086 ft | 464 kts | 115° |
| 2026-04-20 06:20 | 41.65022 | 37.84379 | 35083 ft | 465 kts | 115° |
| 2026-04-20 06:21 | 41.62462 | 37.92321 | 35082 ft | 465 kts | 115° |
| 2026-04-20 06:21 | 41.59895 | 38.00248 | 35078 ft | 465 kts | 115° |
| 2026-04-20 06:22 | 41.57322 | 38.08175 | 35074 ft | 465 kts | 115° |
| 2026-04-20 06:22 | 41.54747 | 38.16094 | 35077 ft | 465 kts | 116° |
| 2026-04-20 06:23 | 41.52159 | 38.24017 | 35082 ft | 465 kts | 116° |
| 2026-04-20 06:23 | 41.49566 | 38.31930 | 35086 ft | 466 kts | 116° |
| 2026-04-20 06:24 | 41.46968 | 38.39839 | 35085 ft | 466 kts | 116° |
| 2026-04-20 06:24 | 41.44384 | 38.47692 | 35086 ft | 465 kts | 116° |
| 2026-04-20 06:25 | 41.41779 | 38.55589 | 35086 ft | 465 kts | 116° |
| 2026-04-20 06:25 | 41.39169 | 38.63478 | 35088 ft | 465 kts | 117° |
| 2026-04-20 06:26 | 41.36549 | 38.71352 | 35089 ft | 465 kts | 117° |
| 2026-04-20 06:26 | 41.33925 | 38.79211 | 35090 ft | 465 kts | 117° |
| 2026-04-20 06:27 | 41.31329 | 38.87089 | 35094 ft | 465 kts | 117° |
| 2026-04-20 06:27 | 41.28760 | 38.94982 | 35094 ft | 465 kts | 117° |
| 2026-04-20 06:28 | 41.26190 | 39.02859 | 35093 ft | 465 kts | 117° |
| 2026-04-20 06:28 | 41.23602 | 39.10725 | 35097 ft | 464 kts | 117° |
| 2026-04-20 06:29 | 41.21015 | 39.18534 | 35096 ft | 464 kts | 118° |
| 2026-04-20 06:29 | 41.18328 | 39.26330 | 35095 ft | 464 kts | 119° |
| 2026-04-20 06:30 | 41.15587 | 39.34075 | 35095 ft | 464 kts | 119° |
| 2026-04-20 06:30 | 41.12846 | 39.41823 | 35091 ft | 464 kts | 119° |
| 2026-04-20 06:31 | 41.10127 | 39.49582 | 35097 ft | 464 kts | 119° |
| 2026-04-20 06:31 | 41.07398 | 39.57349 | 35098 ft | 464 kts | 119° |
| 2026-04-20 06:32 | 41.04654 | 39.65092 | 35095 ft | 464 kts | 119° |
| 2026-04-20 06:32 | 41.01906 | 39.72830 | 35093 ft | 464 kts | 119° |
| 2026-04-20 06:33 | 40.99165 | 39.80557 | 35093 ft | 463 kts | 119° |
| 2026-04-20 06:33 | 40.96494 | 39.88264 | 35089 ft | 464 kts | 118° |
| 2026-04-20 06:34 | 40.93825 | 39.96046 | 35088 ft | 464 kts | 118° |
| 2026-04-20 06:35 | 40.89807 | 40.07677 | 35086 ft | 464 kts | 119° |
| 2026-04-20 06:35 | 40.87111 | 40.15431 | 35089 ft | 464 kts | 119° |
| 2026-04-20 06:36 | 40.84398 | 40.23167 | 35092 ft | 464 kts | 119° |
| 2026-04-20 06:36 | 40.81687 | 40.30895 | 35088 ft | 464 kts | 119° |
| 2026-04-20 06:37 | 40.79437 | 40.37317 | 35082 ft | 464 kts | 119° |
| 2026-04-20 06:37 | 40.76723 | 40.45035 | 35077 ft | 464 kts | 119° |
| 2026-04-20 06:38 | 40.74005 | 40.52751 | 35073 ft | 464 kts | 119° |
| 2026-04-20 06:38 | 40.71284 | 40.60454 | 35060 ft | 463 kts | 120° |
| 2026-04-20 06:39 | 40.68559 | 40.68150 | 35047 ft | 463 kts | 120° |
| 2026-04-20 06:39 | 40.65829 | 40.75842 | 35041 ft | 464 kts | 120° |
| 2026-04-20 06:40 | 40.63082 | 40.83536 | 35028 ft | 464 kts | 120° |
| 2026-04-20 06:40 | 40.60331 | 40.91220 | 35012 ft | 464 kts | 120° |
| 2026-04-20 06:41 | 40.57575 | 40.98914 | 34806 ft | 465 kts | 120° |
| 2026-04-20 06:41 | 40.56199 | 41.02751 | 34560 ft | 464 kts | 120° |
| 2026-04-20 06:41 | 40.54821 | 41.06586 | 34336 ft | 463 kts | 120° |
| 2026-04-20 06:41 | 40.53442 | 41.10410 | 34093 ft | 463 kts | 120° |
| 2026-04-20 06:42 | 40.52062 | 41.14230 | 33823 ft | 462 kts | 120° |
| 2026-04-20 06:42 | 40.50703 | 41.17993 | 33548 ft | 462 kts | 120° |
| 2026-04-20 06:42 | 40.49309 | 41.21855 | 33266 ft | 462 kts | 120° |
| 2026-04-20 06:42 | 40.47952 | 41.25617 | 32991 ft | 461 kts | 120° |
| 2026-04-20 06:43 | 40.46577 | 41.29424 | 32719 ft | 461 kts | 120° |
| 2026-04-20 06:43 | 40.45199 | 41.33235 | 32447 ft | 461 kts | 120° |
| 2026-04-20 06:43 | 40.43823 | 41.37033 | 32178 ft | 461 kts | 121° |
| 2026-04-20 06:43 | 40.42441 | 41.40840 | 31908 ft | 461 kts | 121° |
| 2026-04-20 06:44 | 40.41060 | 41.44630 | 31651 ft | 460 kts | 121° |
| 2026-04-20 06:44 | 40.39675 | 41.48413 | 31390 ft | 460 kts | 121° |
| 2026-04-20 06:44 | 40.38290 | 41.52201 | 31130 ft | 460 kts | 121° |
| 2026-04-20 06:44 | 40.36905 | 41.55985 | 30875 ft | 460 kts | 121° |
| 2026-04-20 06:45 | 40.35513 | 41.59772 | 30631 ft | 460 kts | 121° |
| 2026-04-20 06:45 | 40.34122 | 41.63549 | 30371 ft | 460 kts | 121° |
| 2026-04-20 06:45 | 40.32734 | 41.67321 | 30123 ft | 460 kts | 121° |
| 2026-04-20 06:45 | 40.31345 | 41.71088 | 29845 ft | 460 kts | 121° |
| 2026-04-20 06:46 | 40.29954 | 41.74861 | 29552 ft | 460 kts | 121° |
| 2026-04-20 06:46 | 40.28559 | 41.78645 | 29259 ft | 461 kts | 121° |
| 2026-04-20 06:46 | 40.27165 | 41.82426 | 28960 ft | 462 kts | 121° |
| 2026-04-20 06:46 | 40.25767 | 41.86215 | 28702 ft | 463 kts | 121° |
| 2026-04-20 06:47 | 40.24365 | 41.90008 | 28407 ft | 463 kts | 121° |
| 2026-04-20 06:47 | 40.22959 | 41.93811 | 28126 ft | 464 kts | 121° |
| 2026-04-20 06:47 | 40.21551 | 41.97616 | 27849 ft | 465 kts | 121° |
| 2026-04-20 06:47 | 40.20133 | 42.01438 | 27577 ft | 466 kts | 121° |
| 2026-04-20 06:48 | 40.18711 | 42.05257 | 27306 ft | 467 kts | 121° |
| 2026-04-20 06:48 | 40.17303 | 42.09031 | 27045 ft | 468 kts | 121° |
| 2026-04-20 06:48 | 40.15876 | 42.12851 | 26780 ft | 467 kts | 121° |
| 2026-04-20 06:48 | 40.14451 | 42.16659 | 26522 ft | 466 kts | 121° |
| 2026-04-20 06:49 | 40.13031 | 42.20457 | 26255 ft | 464 kts | 121° |
| 2026-04-20 06:49 | 40.11615 | 42.24241 | 25999 ft | 463 kts | 121° |
| 2026-04-20 06:49 | 40.10202 | 42.28014 | 25743 ft | 462 kts | 121° |
| 2026-04-20 06:49 | 40.08790 | 42.31777 | 25488 ft | 460 kts | 121° |
| 2026-04-20 06:50 | 40.07381 | 42.35525 | 25241 ft | 459 kts | 121° |
| 2026-04-20 06:50 | 40.06085 | 42.39333 | 24992 ft | 462 kts | 114° |
| 2026-04-20 06:50 | 40.05226 | 42.43385 | 24747 ft | 466 kts | 104° |
| 2026-04-20 06:50 | 40.04857 | 42.47597 | 24500 ft | 469 kts | 95° |
| 2026-04-20 06:51 | 40.04980 | 42.51859 | 24261 ft | 471 kts | 88° |
| 2026-04-20 06:51 | 40.05252 | 42.56112 | 24023 ft | 470 kts | 88° |
| 2026-04-20 06:51 | 40.05516 | 42.60351 | 23791 ft | 468 kts | 88° |
| 2026-04-20 06:51 | 40.05773 | 42.64586 | 23555 ft | 466 kts | 88° |
| 2026-04-20 06:52 | 40.06026 | 42.68794 | 23298 ft | 465 kts | 88° |
| 2026-04-20 06:52 | 40.06277 | 42.72993 | 23014 ft | 463 kts | 88° |
| 2026-04-20 06:52 | 40.06528 | 42.77183 | 22741 ft | 461 kts | 88° |
| 2026-04-20 06:52 | 40.06775 | 42.81346 | 22470 ft | 459 kts | 88° |
| 2026-04-20 06:53 | 40.07019 | 42.85497 | 22203 ft | 457 kts | 88° |
| 2026-04-20 06:53 | 40.07262 | 42.89622 | 21938 ft | 455 kts | 88° |
| 2026-04-20 06:53 | 40.07505 | 42.93744 | 21671 ft | 453 kts | 88° |
| 2026-04-20 06:53 | 40.07746 | 42.97840 | 21411 ft | 452 kts | 88° |
| 2026-04-20 06:54 | 40.07986 | 43.01930 | 21152 ft | 450 kts | 88° |
| 2026-04-20 06:54 | 40.08224 | 43.05993 | 20784 ft | 446 kts | 88° |
| 2026-04-20 06:54 | 40.08459 | 43.10013 | 20115 ft | 443 kts | 88° |
| 2026-04-20 06:54 | 40.08688 | 43.14003 | 19474 ft | 439 kts | 88° |
| 2026-04-20 06:55 | 40.08912 | 43.17964 | 18847 ft | 436 kts | 88° |
| 2026-04-20 06:55 | 40.09135 | 43.21891 | 18255 ft | 432 kts | 88° |
| 2026-04-20 06:55 | 40.09357 | 43.25794 | 17610 ft | 429 kts | 88° |
| 2026-04-20 06:55 | 40.09573 | 43.29657 | 17045 ft | 425 kts | 88° |
| 2026-04-20 06:56 | 40.09785 | 43.33487 | 16479 ft | 421 kts | 88° |
| 2026-04-20 06:56 | 40.09995 | 43.37291 | 15911 ft | 418 kts | 88° |
| 2026-04-20 06:56 | 40.10203 | 43.41069 | 15332 ft | 415 kts | 88° |
| 2026-04-20 06:56 | 40.10405 | 43.44807 | 14848 ft | 409 kts | 88° |
| 2026-04-20 06:57 | 40.10602 | 43.48443 | 14717 ft | 393 kts | 88° |
| 2026-04-20 06:57 | 40.10789 | 43.51936 | 14591 ft | 378 kts | 88° |
| 2026-04-20 06:57 | 40.10969 | 43.55305 | 14463 ft | 365 kts | 88° |
| 2026-04-20 06:57 | 40.11139 | 43.58551 | 14339 ft | 352 kts | 88° |
| 2026-04-20 06:58 | 40.11305 | 43.61692 | 14208 ft | 341 kts | 88° |
| 2026-04-20 06:58 | 40.11498 | 43.64739 | 14042 ft | 334 kts | 83° |
| 2026-04-20 06:58 | 40.12079 | 43.67646 | 13767 ft | 331 kts | 70° |
| 2026-04-20 06:58 | 40.13090 | 43.70404 | 13152 ft | 338 kts | 62° |
| 2026-04-20 06:59 | 40.14151 | 43.73066 | 12984 ft | 321 kts | 63° |
| 2026-04-20 06:59 | 40.15095 | 43.75625 | 12676 ft | 307 kts | 70° |
| 2026-04-20 06:59 | 40.15622 | 43.78290 | 12226 ft | 302 kts | 84° |
| 2026-04-20 06:59 | 40.15697 | 43.81004 | 11952 ft | 297 kts | 96° |
| 2026-04-20 07:00 | 40.15576 | 43.83694 | 11646 ft | 296 kts | 95° |
| 2026-04-20 07:00 | 40.15455 | 43.86425 | 10940 ft | 309 kts | 95° |
| 2026-04-20 07:00 | 40.15328 | 43.89233 | 10134 ft | 317 kts | 95° |
| 2026-04-20 07:00 | 40.15200 | 43.92122 | 9282 ft | 321 kts | 95° |
| 2026-04-20 07:01 | 40.15072 | 43.95031 | 8597 ft | 318 kts | 95° |
| 2026-04-20 07:01 | 40.14947 | 43.97890 | 8068 ft | 311 kts | 94° |
| 2026-04-20 07:01 | 40.14801 | 44.00671 | 7555 ft | 303 kts | 99° |
| 2026-04-20 07:01 | 40.14501 | 44.03357 | 7068 ft | 297 kts | 95° |
| 2026-04-20 07:02 | 40.14448 | 44.06035 | 6561 ft | 293 kts | 89° |
| 2026-04-20 07:02 | 40.14503 | 44.08670 | 6038 ft | 287 kts | 88° |
| 2026-04-20 07:02 | 40.14537 | 44.11262 | 5512 ft | 282 kts | 89° |
| 2026-04-20 07:02 | 40.14555 | 44.13791 | 5158 ft | 270 kts | 89° |
| 2026-04-20 07:03 | 40.14571 | 44.16110 | 5104 ft | 246 kts | 89° |
| 2026-04-20 07:03 | 40.14588 | 44.18337 | 5115 ft | 243 kts | 89° |
| 2026-04-20 07:03 | 40.14603 | 44.20415 | 5101 ft | 217 kts | 89° |
| 2026-04-20 07:03 | 40.14617 | 44.22338 | 5113 ft | 208 kts | 89° |
| 2026-04-20 07:04 | 40.14630 | 44.24192 | 4832 ft | 198 kts | 89° |
| 2026-04-20 07:04 | 40.14642 | 44.25946 | 4577 ft | 188 kts | 89° |
| 2026-04-20 07:04 | 40.14654 | 44.27600 | 4315 ft | 175 kts | 89° |
| 2026-04-20 07:04 | 40.14664 | 44.29117 | 4078 ft | 162 kts | 90° |
| 2026-04-20 07:05 | 40.14674 | 44.30566 | 3809 ft | 157 kts | 89° |
| 2026-04-20 07:05 | 40.14680 | 44.31988 | 3596 ft | 156 kts | 90° |
| 2026-04-20 07:05 | 40.14687 | 44.33396 | 3416 ft | 155 kts | 90° |
| 2026-04-20 07:05 | 40.14700 | 44.34801 | 3228 ft | 155 kts | 89° |
| 2026-04-20 07:06 | 40.14713 | 44.36204 | 3023 ft | 154 kts | 90° |
| 2026-04-20 07:06 | 40.14719 | 44.37579 | 2867 ft | 153 kts | 90° |
| 2026-04-20 07:06 | 40.14723 | 44.38811 | 2840 ft | 112 kts | 89° |
| 2026-04-20 07:06 | 40.14726 | 44.39566 | 2839 ft | 60 kts | 89° |
| 2026-04-20 07:07 | 40.14731 | 44.39953 | 2841 ft | 26 kts | 78° |
| 2026-04-20 07:07 | 40.14831 | 44.40038 | 2840 ft | 17 kts | 359° |
| 2026-04-20 07:07 | 40.14926 | 44.40035 | 2840 ft | 11 kts | 356° |
| 2026-04-20 07:07 | 40.14974 | 44.39988 | 2841 ft | 7 kts | 290° |
| 2026-04-20 07:08 | 40.14978 | 44.39963 | 2840 ft | 1 kts | 275° |
| 2026-04-20 07:08 | 40.14979 | 44.39960 | 2840 ft | 1 kts | 275° |
| 2026-04-20 07:08 | 40.14982 | 44.39953 | 2841 ft | 0 kts | 314° |
| 2026-04-20 07:08 | 40.14994 | 44.39948 | 2841 ft | 5 kts | 342° |
| 2026-04-20 07:09 | 40.15039 | 44.39945 | 2841 ft | 7 kts | 359° |
| 2026-04-20 07:09 | 40.15085 | 44.39945 | 2841 ft | 0 kts | 359° |
| 2026-04-20 07:09 | 40.15090 | 44.39945 | 2841 ft | 2 kts | 359° |
| 2026-04-20 07:09 | 40.15096 | 44.39945 | 2840 ft | 0 kts | 359° |